createdAt,value
2023-03-21T18:15:19.663Z,1007.15
2023-03-21T18:15:31.009Z,1007.17
2023-03-21T18:15:39.747Z,1007.27
2023-03-21T18:15:55.171Z,1007.18
2023-03-21T18:16:04.736Z,1007.26
2023-03-21T18:16:14.634Z,1007.30
2023-03-21T18:16:24.822Z,1007.36
2023-03-21T18:16:32.529Z,1007.49
2023-03-21T18:16:42.138Z,1007.59
2023-03-21T18:16:52.241Z,1007.72
2023-03-21T18:17:02.213Z,1007.89
2023-03-21T18:17:12.371Z,1008.03
2023-03-21T18:17:22.428Z,1008.08
2023-03-21T18:17:32.574Z,1008.20
2023-03-21T18:17:42.818Z,1008.25
2023-03-21T18:17:52.917Z,1008.39
2023-03-21T18:18:03.212Z,1008.49
2023-03-21T18:18:14.051Z,1008.61
2023-03-21T18:18:23.446Z,1008.74
2023-03-21T18:18:33.887Z,1008.84
2023-03-21T18:18:44.490Z,1008.94
2023-03-21T18:18:53.703Z,1008.99
2023-03-21T18:19:04.317Z,1009.03
2023-03-21T18:19:14.865Z,1009.00
2023-03-21T18:19:24.209Z,1008.98
2023-03-21T18:19:34.516Z,1009.06
2023-03-21T18:19:46.617Z,1009.00
2023-03-21T18:19:54.605Z,1008.99
2023-03-21T18:20:09.695Z,1008.99
2023-03-21T18:20:15.530Z,1009.00
2023-03-21T18:20:24.970Z,1009.03
2023-03-21T18:20:51.070Z,1009.02
2023-03-21T18:20:58.320Z,1009.02
2023-03-21T18:21:04.247Z,1009.06
2023-03-21T18:21:14.419Z,1009.05
2023-03-21T18:21:26.500Z,1009.03
2023-03-21T18:21:36.065Z,1009.06
2023-03-21T18:21:45.730Z,1009.07
2023-03-21T18:21:55.001Z,1009.06
2023-03-21T18:22:05.029Z,1009.02
2023-03-21T18:22:15.931Z,1009.05
2023-03-21T18:22:25.275Z,1009.06
2023-03-21T18:22:35.391Z,1009.07
2023-03-21T18:22:45.596Z,1009.06
2023-03-21T18:22:56.497Z,1009.05
2023-03-21T18:23:05.859Z,1009.05
2023-03-21T18:23:15.946Z,1009.03
2023-03-21T18:23:25.995Z,1009.06
2023-03-21T18:23:36.992Z,1009.04
2023-03-21T18:23:46.207Z,1009.11
2023-03-21T18:23:56.467Z,1009.23
2023-03-21T18:24:07.465Z,1009.30
2023-03-21T18:24:16.657Z,1009.40
2023-03-21T18:24:27.260Z,1009.52
2023-03-21T18:24:38.203Z,1009.64
2023-03-21T18:24:47.029Z,1009.71
2023-03-21T18:24:57.547Z,1009.72
2023-03-21T18:25:07.276Z,1009.80
2023-03-21T18:25:18.547Z,1009.82
2023-03-21T18:25:27.455Z,1009.87
2023-03-21T18:25:38.480Z,1009.88
2023-03-21T18:25:47.797Z,1009.91
2023-03-21T18:25:57.921Z,1009.92
2023-03-21T18:26:08.870Z,1009.94
2023-03-21T18:26:18.112Z,1009.96
2023-03-21T18:26:28.310Z,1009.92
2023-03-21T18:26:38.365Z,1009.95
2023-03-21T18:26:48.681Z,1009.98
2023-03-21T18:26:58.728Z,1009.95
2023-03-21T18:27:08.733Z,1009.93
2023-03-21T18:27:19.018Z,1009.89
2023-03-21T18:27:32.907Z,1009.90
2023-03-21T18:28:02.032Z,1009.92
2023-03-21T18:28:19.392Z,1009.91
2023-03-21T18:28:26.000Z,1009.94
2023-03-21T18:28:35.145Z,1009.90
2023-03-21T18:28:45.367Z,1009.95
2023-03-21T18:29:53.510Z,1009.97
2023-03-21T18:30:44.566Z,1009.95
2023-03-21T18:31:18.234Z,1010.05
2023-03-21T18:31:25.131Z,1010.09
2023-03-21T18:31:30.767Z,1010.19
2023-03-21T18:31:41.269Z,1010.22
2023-03-21T18:32:05.082Z,1010.30
2023-03-21T18:32:11.329Z,1010.37
2023-03-21T18:32:17.126Z,1010.45
2023-03-21T18:32:26.921Z,1010.51
2023-03-21T18:32:37.044Z,1010.53
2023-03-21T18:32:47.204Z,1010.58
2023-03-21T18:32:58.369Z,1010.60
2023-03-21T18:33:07.341Z,1010.67
2023-03-21T18:33:17.600Z,1010.66
2023-03-21T18:33:28.455Z,1010.71
2023-03-21T18:33:37.682Z,1010.72
2023-03-21T18:33:47.987Z,1010.74
2023-03-21T18:33:58.963Z,1010.78
2023-03-21T18:34:08.162Z,1010.83
2023-03-21T18:34:18.323Z,1010.90
2023-03-21T18:34:29.537Z,1010.91
2023-03-21T18:34:38.564Z,1010.94
2023-03-21T18:34:48.834Z,1010.99
2023-03-21T18:34:59.425Z,1011.06
2023-03-21T18:35:09.008Z,1011.09
2023-03-21T18:35:18.973Z,1011.15
2023-03-21T18:36:00.364Z,1011.14
2023-03-21T18:36:28.914Z,1011.20
2023-03-21T18:36:35.054Z,1011.22
2023-03-21T18:36:44.985Z,1011.22
2023-03-21T18:36:55.145Z,1011.18
2023-03-21T18:37:05.115Z,1011.19
2023-03-21T18:37:15.250Z,1011.20
2023-03-21T18:37:25.452Z,1011.18
2023-03-21T18:37:35.901Z,1011.18
2023-03-21T18:37:46.452Z,1011.17
2023-03-21T18:37:55.815Z,1011.17
2023-03-21T18:38:05.939Z,1011.20
2023-03-21T18:38:16.118Z,1011.20
2023-03-21T18:38:26.866Z,1011.19
2023-03-21T18:38:36.390Z,1011.20
2023-03-21T18:38:46.419Z,1011.21
2023-03-21T18:38:56.651Z,1011.18
2023-03-21T18:39:06.643Z,1011.19
2023-03-21T18:39:16.818Z,1011.21
2023-03-21T18:39:27.937Z,1011.21
2023-03-21T18:39:37.024Z,1011.20
2023-03-21T18:39:47.225Z,1011.21
2023-03-21T18:39:57.908Z,1011.23
2023-03-21T18:40:07.308Z,1011.19
2023-03-21T18:40:18.441Z,1011.24
2023-03-21T18:40:27.546Z,1011.20
2023-03-21T18:40:38.185Z,1011.20
2023-03-21T18:40:47.791Z,1011.19
2023-03-21T18:40:59.343Z,1011.18
2023-03-21T18:41:08.092Z,1011.19
2023-03-21T18:41:18.920Z,1011.20
2023-03-21T18:41:28.305Z,1011.19
2023-03-21T18:41:38.946Z,1011.20
2023-03-21T18:41:49.529Z,1011.18
2023-03-21T18:41:59.055Z,1011.19
2023-03-21T18:42:17.217Z,1011.22
2023-03-21T18:42:23.533Z,1011.29
2023-03-21T18:42:31.083Z,1011.31
2023-03-21T18:42:39.911Z,1011.37
2023-03-21T18:43:45.888Z,1011.34
2023-03-21T18:44:14.229Z,1011.36
2023-03-21T18:44:24.986Z,1011.40
2023-03-21T18:44:31.026Z,1011.37
2023-03-21T18:44:41.050Z,1011.37
2023-03-21T18:44:51.485Z,1011.34
2023-03-21T18:45:01.080Z,1011.40
2023-03-21T18:45:11.954Z,1011.36
2023-03-21T18:45:21.346Z,1011.38
2023-03-21T18:45:31.643Z,1011.37
2023-03-21T18:45:41.717Z,1011.34
2023-03-21T18:45:51.961Z,1011.36
2023-03-21T18:46:01.934Z,1011.37
2023-03-21T18:46:12.038Z,1011.35
2023-03-21T18:46:22.908Z,1011.37
2023-03-21T18:46:32.236Z,1011.32
2023-03-21T18:46:42.525Z,1011.34
2023-03-21T18:46:53.424Z,1011.31
2023-03-21T18:47:02.716Z,1011.32
2023-03-21T18:47:13.485Z,1011.34
2023-03-21T18:47:22.877Z,1011.33
2023-03-21T18:47:32.953Z,1011.32
2023-03-21T18:47:43.168Z,1011.32
2023-03-21T18:47:53.929Z,1011.29
2023-03-21T18:48:03.462Z,1011.37
2023-03-21T18:48:13.534Z,1011.32
2023-03-21T18:48:24.077Z,1011.30
2023-03-21T18:48:35.122Z,1011.34
2023-03-21T18:48:43.902Z,1011.36
2023-03-21T18:48:55.502Z,1011.32
2023-03-21T18:49:33.914Z,1011.34
2023-03-21T18:50:29.051Z,1011.42
2023-03-21T18:50:34.746Z,1011.35
2023-03-21T18:50:45.463Z,1011.32
2023-03-21T18:50:54.931Z,1011.23
2023-03-21T18:51:05.210Z,1011.25
2023-03-21T18:51:15.269Z,1011.23
2023-03-21T18:51:25.485Z,1011.22
2023-03-21T18:51:35.839Z,1011.25
2023-03-21T18:51:45.627Z,1011.24
2023-03-21T18:51:55.731Z,1011.21
2023-03-21T18:52:06.046Z,1011.18
2023-03-21T18:52:16.591Z,1011.14
2023-03-21T18:52:26.208Z,1011.17
2023-03-21T18:52:36.663Z,1011.15
2023-03-21T18:52:46.497Z,1011.11
2023-03-21T18:52:57.348Z,1011.06
2023-03-21T18:53:31.538Z,1011.01
2023-03-21T18:53:39.108Z,1010.96
2023-03-21T18:53:49.083Z,1010.91
2023-03-21T18:54:00.808Z,1010.89
2023-03-21T18:54:09.264Z,1010.85
2023-03-21T18:54:17.748Z,1010.80
2023-03-21T18:54:28.137Z,1010.79
2023-03-21T18:54:38.121Z,1010.82
2023-03-21T18:54:48.025Z,1010.77
2023-03-21T18:54:58.246Z,1010.79
2023-03-21T18:55:08.640Z,1010.77
2023-03-21T18:55:18.978Z,1010.79
2023-03-21T18:55:44.755Z,1010.80
2023-03-21T18:55:57.364Z,1010.80
2023-03-21T18:56:03.149Z,1010.81
2023-03-21T18:56:46.825Z,1010.81
2023-03-21T18:57:34.504Z,1010.82
2023-03-21T18:58:23.927Z,1010.83
2023-03-21T18:58:29.364Z,1010.78
2023-03-21T18:58:39.584Z,1010.78
2023-03-21T18:58:50.388Z,1010.77
2023-03-21T18:58:59.686Z,1010.76
2023-03-21T18:59:09.998Z,1010.77
2023-03-21T18:59:21.301Z,1010.77
2023-03-21T18:59:30.105Z,1010.77
2023-03-21T18:59:40.227Z,1010.77
2023-03-21T18:59:50.427Z,1010.77
2023-03-21T19:00:00.814Z,1010.80
2023-03-21T19:00:11.070Z,1010.79
2023-03-21T19:00:20.948Z,1010.78
2023-03-21T19:00:31.006Z,1010.78
2023-03-21T19:00:42.660Z,1010.76
2023-03-21T19:00:51.213Z,1010.78
2023-03-21T19:01:04.583Z,1010.73
2023-03-21T19:01:11.482Z,1010.75
2023-03-21T19:01:21.701Z,1010.80
2023-03-21T19:01:31.798Z,1010.82
2023-03-21T19:01:42.247Z,1010.78
2023-03-21T19:01:51.998Z,1010.75
2023-03-21T19:02:02.913Z,1010.73
2023-03-21T19:02:12.169Z,1010.71
2023-03-21T19:02:22.610Z,1010.70
2023-03-21T19:02:32.499Z,1010.69
2023-03-21T19:02:46.698Z,1010.69
2023-03-21T19:03:04.226Z,1010.69
2023-03-21T19:03:36.335Z,1010.68
2023-03-21T19:03:53.188Z,1010.64
2023-03-21T19:04:29.692Z,1010.62
2023-03-21T19:04:38.132Z,1010.46
2023-03-21T19:04:45.442Z,1010.37
2023-03-21T19:04:53.916Z,1010.30
2023-03-21T19:05:04.003Z,1010.29
2023-03-21T19:05:15.997Z,1010.27
2023-03-21T19:05:24.415Z,1010.18
2023-03-21T19:05:34.475Z,1010.19
2023-03-21T19:05:44.832Z,1010.17
2023-03-21T19:05:54.915Z,1010.17
2023-03-21T19:06:05.353Z,1010.16
2023-03-21T19:06:17.217Z,1010.17
2023-03-21T19:06:25.108Z,1010.14
2023-03-21T19:06:35.242Z,1010.16
2023-03-21T19:06:45.507Z,1010.14
2023-03-21T19:06:55.465Z,1010.09
2023-03-21T19:07:05.618Z,1010.04
2023-03-21T19:07:17.247Z,1009.98
2023-03-21T19:07:25.744Z,1009.92
2023-03-21T19:07:36.322Z,1009.87
2023-03-21T19:07:47.154Z,1009.78
2023-03-21T19:07:56.230Z,1009.78
2023-03-21T19:08:06.394Z,1009.73
2023-03-21T19:08:16.450Z,1009.64
2023-03-21T19:08:27.758Z,1009.61
2023-03-21T19:08:37.456Z,1009.56
2023-03-21T19:08:46.823Z,1009.53
2023-03-21T19:09:10.180Z,1009.44
2023-03-21T19:09:15.926Z,1009.33
2023-03-21T19:09:31.125Z,1009.29
2023-03-21T19:09:58.055Z,1009.35
2023-03-21T19:10:17.806Z,1009.31
2023-03-21T19:10:23.914Z,1009.02
2023-03-21T19:10:29.792Z,1008.90
2023-03-21T19:10:40.787Z,1008.88
2023-03-21T19:10:49.847Z,1008.86
2023-03-21T19:11:03.676Z,1008.76
2023-03-21T19:11:11.188Z,1008.71
2023-03-21T19:11:20.891Z,1008.58
2023-03-21T19:11:31.168Z,1008.51
2023-03-21T19:11:40.540Z,1008.54
2023-03-21T19:11:50.695Z,1008.48
2023-03-21T19:12:01.927Z,1008.47
2023-03-21T19:12:10.919Z,1008.46
2023-03-21T19:12:21.229Z,1008.33
2023-03-21T19:12:31.291Z,1008.22
2023-03-21T19:12:41.979Z,1008.10
2023-03-21T19:12:51.494Z,1007.97
2023-03-21T19:13:01.575Z,1007.74
2023-03-21T19:13:11.695Z,1007.62
2023-03-21T19:13:21.931Z,1007.48
2023-03-21T19:13:32.041Z,1007.36
2023-03-21T19:13:43.030Z,1007.32
2023-03-21T19:13:52.140Z,1007.31
2023-03-21T19:14:02.356Z,1007.24
2023-03-21T19:14:13.482Z,1007.22
2023-03-21T19:14:22.561Z,1007.27
2023-03-21T19:14:33.429Z,1007.20
2023-03-21T19:14:42.828Z,1007.19
2023-03-21T19:14:52.944Z,1007.16
2023-03-21T19:15:03.999Z,1007.12
2023-03-21T19:15:13.548Z,1007.12
2023-03-21T19:15:23.609Z,1007.10
2023-03-21T19:15:33.941Z,1007.08
